Terminal Aerodrome Forecast
Issued by NWS

Home | Current Version | Previous Version | Text Only | Print | Product List | Glossary Off
Versions: 1 2 3 4 5 6 7 8 9 10 11 12

000
FTUS45 KGGW 210531
TAFGDV
TAF
KGDV 210531Z 2106/2206 35015G23KT P6SM BKN060
     FM210900 32014KT P6SM FEW170
     FM211200 32009KT P6SM SKC
     FM211500 VRB05KT P6SM FEW250=

USA.gov is the U.S. government's official web portal to all federal, state and local government web resources and services.